Terminal Aerodrome Forecast
Issued by NWS

Home | Current Version | Previous Version | Text Only | Print | Product List | Glossary On
Versions: 1 2 3 4 5 6 7 8 9 10 11 12 13 14
000
FTUS42 TJSJ 300545
TAFJPS
TAF
TJPS 300545Z 3006/0106 07010G20KT P6SM VCSH SCT030
     FM301300 12015G25KT P6SM VCSH SCT025 BKN050
     FM302300 09010KT P6SM FEW025 SCT050=

USA.gov is the U.S. government's official web portal to all federal, state and local government web resources and services.